createdAt,value
2022-10-09T00:01:24.394Z,102645.91
2022-10-09T00:03:53.473Z,102637.81
2022-10-09T00:06:23.185Z,102632.19
2022-10-09T00:08:50.434Z,102634.59
2022-10-09T00:11:20.533Z,102631.88
2022-10-09T00:13:47.918Z,102626.97
2022-10-09T00:16:16.210Z,102631.88
2022-10-09T00:18:43.222Z,102631.28
2022-10-09T00:21:23.455Z,102628.91
2022-10-09T00:23:50.835Z,102641.09
2022-10-09T00:26:17.579Z,102637.28
2022-10-09T00:28:44.098Z,102643.31
2022-10-09T00:31:11.855Z,102638.75
2022-10-09T00:33:38.955Z,102644.19
2022-10-09T00:36:07.592Z,102639.91
2022-10-09T00:38:34.110Z,102642.59
2022-10-09T00:41:00.886Z,102628.91
2022-10-09T00:43:46.074Z,102642.69
2022-10-09T00:46:33.509Z,102642.13
2022-10-09T00:49:06.292Z,102630.47
2022-10-09T00:51:34.619Z,102628.84
2022-10-09T00:54:04.869Z,102627.50
2022-10-09T00:56:31.331Z,102633.47
2022-10-09T00:58:58.497Z,102631.06
2022-10-09T01:01:25.043Z,102630.25
2022-10-09T01:03:51.632Z,102635.06
2022-10-09T01:06:44.735Z,102633.69
2022-10-09T01:09:19.762Z,102631.81
2022-10-09T01:11:56.426Z,102626.16
2022-10-09T01:14:29.648Z,102636.47
2022-10-09T01:17:11.230Z,102629.81
2022-10-09T01:20:09.907Z,102629.56
2022-10-09T01:22:52.000Z,102627.41
2022-10-09T01:25:26.943Z,102624.44
2022-10-09T01:27:54.578Z,102619.31
2022-10-09T01:30:21.039Z,102619.56
2022-10-09T01:32:50.625Z,102615.81
2022-10-09T01:35:17.921Z,102602.53
2022-10-09T01:37:47.090Z,102609.03
2022-10-09T01:40:17.014Z,102614.91
2022-10-09T01:42:44.185Z,102605.69
2022-10-09T01:45:11.053Z,102600.56
2022-10-09T01:47:37.962Z,102600.63
2022-10-09T01:50:16.463Z,102602.31
2022-10-09T01:53:03.104Z,102599.94
2022-10-09T01:55:49.445Z,102592.16
2022-10-09T01:58:23.540Z,102591.94
2022-10-09T02:01:00.557Z,102593.78
2022-10-09T02:03:28.917Z,102593.00
2022-10-09T02:05:57.625Z,102586.50
2022-10-09T02:08:25.228Z,102588.09
2022-10-09T02:10:56.486Z,102587.31
2022-10-09T02:13:23.600Z,102588.69
2022-10-09T02:15:57.974Z,102585.69
2022-10-09T02:19:03.355Z,102587.88
2022-10-09T02:21:42.161Z,102579.50
2022-10-09T02:24:16.555Z,102576.78
2022-10-09T02:26:43.010Z,102578.41
2022-10-09T02:29:09.839Z,102575.75
2022-10-09T02:31:39.042Z,102572.50
2022-10-09T02:34:09.279Z,102571.16
2022-10-09T02:36:36.502Z,102581.38
2022-10-09T02:39:04.459Z,102566.00
2022-10-09T02:41:30.910Z,102561.69
2022-10-09T02:43:57.440Z,102558.19
2022-10-09T02:46:24.296Z,102559.56
2022-10-09T02:48:51.051Z,102564.97
2022-10-09T02:51:17.594Z,102559.22
2022-10-09T02:53:44.265Z,102563.09
2022-10-09T02:56:10.815Z,102559.59
2022-10-09T02:58:37.641Z,102559.34
2022-10-09T03:01:05.225Z,102554.19
2022-10-09T03:03:32.334Z,102553.69
2022-10-09T03:06:09.351Z,102551.75
2022-10-09T03:08:37.145Z,102552.00
2022-10-09T03:11:04.464Z,102543.16
2022-10-09T03:13:31.180Z,102550.69
2022-10-09T03:16:09.057Z,102549.31
2022-10-09T03:18:36.536Z,102544.16
2022-10-09T03:21:14.434Z,102554.38
2022-10-09T03:23:42.770Z,102552.22
2022-10-09T03:26:12.134Z,102551.47
2022-10-09T03:28:41.191Z,102559.34
2022-10-09T03:31:08.802Z,102551.03
2022-10-09T03:33:36.185Z,102549.16
2022-10-09T03:36:02.796Z,102550.03
2022-10-09T03:38:29.255Z,102554.31
2022-10-09T03:40:59.208Z,102552.41
2022-10-09T03:43:25.991Z,102551.28
2022-10-09T03:45:52.853Z,102552.13
2022-10-09T03:48:19.277Z,102540.81
2022-10-09T03:50:45.859Z,102547.53
2022-10-09T03:53:13.230Z,102559.88
2022-10-09T03:55:40.384Z,102551.75
2022-10-09T03:58:07.461Z,102550.97
2022-10-09T04:00:34.702Z,102552.00
2022-10-09T04:03:01.359Z,102556.88
2022-10-09T04:05:27.919Z,102553.94
2022-10-09T04:07:54.333Z,102554.69
2022-10-09T04:10:20.750Z,102563.38
2022-10-09T04:12:47.495Z,102568.25
2022-10-09T04:15:14.227Z,102568.28
2022-10-09T04:17:40.667Z,102565.34
2022-10-09T04:20:07.692Z,102564.53
2022-10-09T04:22:34.232Z,102564.53
2022-10-09T04:25:00.669Z,102568.81
2022-10-09T04:27:27.146Z,102560.19
2022-10-09T04:29:53.593Z,102554.53
2022-10-09T04:32:19.990Z,102553.19
2022-10-09T04:34:46.409Z,102548.34
2022-10-09T04:37:12.819Z,102551.84
2022-10-09T04:39:39.290Z,102549.34
2022-10-09T04:42:06.261Z,102540.44
2022-10-09T04:44:32.738Z,102543.66
2022-10-09T04:46:59.149Z,102547.75
2022-10-09T04:49:25.611Z,102548.53
2022-10-09T04:51:52.051Z,102539.66
2022-10-09T04:54:18.505Z,102543.19
2022-10-09T04:56:44.935Z,102543.47
2022-10-09T04:59:11.441Z,102530.78
2022-10-09T05:01:38.653Z,102543.97
2022-10-09T05:04:05.409Z,102544.50
2022-10-09T05:06:31.903Z,102536.69
2022-10-09T05:08:58.324Z,102538.81
2022-10-09T05:11:25.699Z,102529.91
2022-10-09T05:13:54.895Z,102536.97
2022-10-09T05:16:24.552Z,102526.69
2022-10-09T05:18:54.013Z,102524.78
2022-10-09T05:21:21.727Z,102529.59
2022-10-09T05:23:48.936Z,102529.88
2022-10-09T05:26:18.304Z,102534.97
2022-10-09T05:28:45.687Z,102519.66
2022-10-09T05:31:21.354Z,102526.19
2022-10-09T05:33:48.571Z,102521.28
2022-10-09T05:36:16.050Z,102521.78
2022-10-09T05:38:42.504Z,102524.50
2022-10-09T05:41:12.499Z,102515.28
2022-10-09T05:43:41.941Z,102518.25
2022-10-09T05:46:21.666Z,102526.09
2022-10-09T05:48:53.246Z,102522.31
2022-10-09T05:51:22.659Z,102522.09
2022-10-09T05:53:49.529Z,102531.28
2022-10-09T05:56:28.113Z,102530.94
2022-10-09T05:59:03.519Z,102530.41
2022-10-09T06:01:35.940Z,102532.06
2022-10-09T06:04:03.530Z,102534.72
2022-10-09T06:06:32.352Z,102531.28
2022-10-09T06:08:59.427Z,102526.38
2022-10-09T06:11:29.169Z,102526.09
2022-10-09T06:13:56.301Z,102531.75
2022-10-09T06:16:25.647Z,102537.09
2022-10-09T06:18:53.788Z,102540.59
2022-10-09T06:21:21.143Z,102539.25
2022-10-09T06:23:59.074Z,102544.91
2022-10-09T06:26:32.203Z,102549.22
2022-10-09T06:29:00.974Z,102540.91
2022-10-09T06:31:30.624Z,102538.78
2022-10-09T06:33:59.535Z,102547.13
2022-10-09T06:36:28.229Z,102550.31
2022-10-09T06:38:55.128Z,102538.19
2022-10-09T06:41:24.154Z,102544.63
2022-10-09T06:43:55.813Z,102543.81
2022-10-09T06:46:24.957Z,102545.72
2022-10-09T06:48:51.964Z,102550.75
2022-10-09T06:51:20.883Z,102540.91
2022-10-09T06:53:52.829Z,102544.34
2022-10-09T06:56:21.735Z,102547.44
2022-10-09T06:58:48.861Z,102541.16
2022-10-09T07:01:23.867Z,102541.88
2022-10-09T07:03:56.211Z,102542.91
2022-10-09T07:06:28.363Z,102542.56
2022-10-09T07:08:58.609Z,102544.81
2022-10-09T07:11:33.377Z,102553.16
2022-10-09T07:14:01.735Z,102545.75
2022-10-09T07:16:31.410Z,102545.94
2022-10-09T07:19:01.084Z,102548.53
2022-10-09T07:21:27.518Z,102549.34
2022-10-09T07:23:54.175Z,102541.94
2022-10-09T07:26:26.362Z,102545.56
2022-10-09T07:28:53.940Z,102552.13
2022-10-09T07:31:20.667Z,102547.63
2022-10-09T07:33:48.231Z,102546.16
2022-10-09T07:36:14.681Z,102548.72
2022-10-09T07:38:41.173Z,102548.25
2022-10-09T07:41:12.526Z,102547.50
2022-10-09T07:43:40.410Z,102540.22
2022-10-09T07:46:10.784Z,102537.94
2022-10-09T07:48:37.784Z,102536.63
2022-10-09T07:51:13.363Z,102536.47
2022-10-09T07:53:39.854Z,102541.31
2022-10-09T07:56:07.093Z,102535.50
2022-10-09T07:58:33.773Z,102541.84
2022-10-09T08:01:05.179Z,102537.03
2022-10-09T08:03:31.797Z,102540.03
2022-10-09T08:05:58.560Z,102540.63
2022-10-09T08:08:25.122Z,102534.78
2022-10-09T08:10:51.638Z,102529.63
2022-10-09T08:13:18.039Z,102530.91
2022-10-09T08:15:45.351Z,102530.69
2022-10-09T08:18:12.668Z,102527.53
2022-10-09T08:20:39.726Z,102532.66
2022-10-09T08:23:06.271Z,102526.88
2022-10-09T08:25:37.490Z,102538.28
2022-10-09T08:28:04.844Z,102535.94
2022-10-09T08:30:31.494Z,102521.41
2022-10-09T08:32:57.934Z,102522.59
2022-10-09T08:35:24.350Z,102524.72
2022-10-09T08:37:50.792Z,102523.97
2022-10-09T08:40:29.250Z,102513.44
2022-10-09T08:43:03.203Z,102509.50
2022-10-09T08:45:32.627Z,102513.19
2022-10-09T08:48:04.309Z,102503.94
2022-10-09T08:50:34.843Z,102507.78
2022-10-09T08:53:28.556Z,102494.19
2022-10-09T08:56:15.081Z,102491.34
2022-10-09T08:58:43.922Z,102498.84
2022-10-09T09:01:47.612Z,102498.22
2022-10-09T09:04:29.206Z,102493.59
2022-10-09T09:07:19.626Z,102495.38
2022-10-09T09:09:54.139Z,102486.09
2022-10-09T09:12:49.442Z,102489.78
2022-10-09T09:15:31.368Z,102485.78
2022-10-09T09:18:00.740Z,102481.31
2022-10-09T09:21:15.267Z,102481.97
2022-10-09T09:23:46.870Z,102477.34
2022-10-09T09:26:17.418Z,102469.19
2022-10-09T09:28:45.123Z,102470.63
2022-10-09T09:31:17.524Z,102471.91
2022-10-09T09:33:52.960Z,102468.88
2022-10-09T09:36:33.282Z,102461.66
2022-10-09T09:39:54.283Z,102466.50
2022-10-09T09:41:46.284Z,102457.53
2022-10-09T09:44:14.949Z,102455.44
2022-10-09T09:46:43.579Z,102456.09
2022-10-09T09:49:23.730Z,102450.19
2022-10-09T09:51:51.397Z,102446.81
2022-10-09T09:54:24.219Z,102449.06
2022-10-09T09:57:12.016Z,102432.88
2022-10-09T09:59:41.907Z,102441.69
2022-10-09T10:02:20.686Z,102429.34
2022-10-09T10:04:58.962Z,102422.78
2022-10-09T10:07:33.635Z,102418.78
2022-10-09T10:10:15.216Z,102424.22
2022-10-09T10:12:59.192Z,102419.72
2022-10-09T10:15:29.000Z,102415.25
2022-10-09T10:18:03.046Z,102418.75
2022-10-09T10:20:32.267Z,102412.31
2022-10-09T10:23:00.177Z,102417.66
2022-10-09T10:25:32.068Z,102409.78
2022-10-09T10:28:06.006Z,102416.34
2022-10-09T10:30:35.404Z,102408.44
2022-10-09T10:33:19.287Z,102398.50
2022-10-09T10:35:51.556Z,102396.72
2022-10-09T10:38:35.894Z,102387.91
2022-10-09T10:41:30.315Z,102384.19
2022-10-09T10:44:42.675Z,102387.91
2022-10-09T10:47:18.458Z,102379.06
2022-10-09T10:49:44.937Z,102370.03
2022-10-09T10:52:33.249Z,102362.94
2022-10-09T10:55:02.626Z,102368.53
2022-10-09T10:57:43.176Z,102363.38
2022-10-09T11:00:11.375Z,102350.34
2022-10-09T11:03:11.632Z,102350.13
2022-10-09T11:05:47.423Z,102348.69
2022-10-09T11:08:51.403Z,102340.63
2022-10-09T11:11:37.320Z,102337.41
2022-10-09T11:14:20.057Z,102339.78
2022-10-09T11:17:06.645Z,102339.13
2022-10-09T11:19:51.003Z,102329.47
2022-10-09T11:22:40.179Z,102329.72
2022-10-09T11:25:22.010Z,102323.75
2022-10-09T11:28:11.856Z,102315.03
2022-10-09T11:30:51.087Z,102307.75
2022-10-09T11:33:42.817Z,102309.63
2022-10-09T11:36:34.284Z,102310.25
2022-10-09T11:39:09.667Z,102293.06
2022-10-09T11:41:37.511Z,102293.97
2022-10-09T11:44:19.213Z,102287.06
2022-10-09T11:46:52.177Z,102282.16
2022-10-09T11:49:24.393Z,102275.72
2022-10-09T11:51:57.413Z,102273.53
2022-10-09T11:54:27.459Z,102268.06
2022-10-09T11:57:01.130Z,102269.47
2022-10-09T11:59:35.104Z,102267.78
2022-10-09T12:02:26.858Z,102264.00
2022-10-09T12:04:55.480Z,102263.56
2022-10-09T12:10:23.330Z,102239.31
2022-10-09T12:13:03.020Z,102234.75
2022-10-09T12:15:48.062Z,102231.81
2022-10-09T12:18:23.665Z,102226.34
2022-10-09T12:20:51.151Z,102216.66
2022-10-09T12:23:27.942Z,102212.47
2022-10-09T12:25:56.634Z,102197.19
2022-10-09T12:28:29.453Z,102197.31
2022-10-09T12:30:59.622Z,102201.75
2022-10-09T12:33:40.096Z,102190.25
2022-10-09T12:36:15.353Z,102191.28
2022-10-09T12:38:42.822Z,102182.50
2022-10-09T12:41:41.370Z,102177.69
2022-10-09T12:44:23.907Z,102175.09
2022-10-09T12:46:51.303Z,102175.53
2022-10-09T12:49:21.676Z,102161.16
2022-10-09T12:51:56.753Z,102159.22
2022-10-09T12:54:25.171Z,102151.03
2022-10-09T12:56:53.358Z,102148.19
2022-10-09T12:59:20.913Z,102142.50
2022-10-09T13:01:50.023Z,102130.66
2022-10-09T13:04:56.599Z,102133.25
2022-10-09T13:07:26.365Z,102114.53
2022-10-09T13:10:00.176Z,102118.63
2022-10-09T13:12:29.183Z,102120.56
2022-10-09T13:15:05.103Z,102106.44
2022-10-09T13:17:40.275Z,102108.50
2022-10-09T13:20:12.453Z,102103.03
2022-10-09T13:22:39.651Z,102101.63
2022-10-09T13:25:06.807Z,102096.16
2022-10-09T13:27:38.005Z,102082.03
2022-10-09T13:30:06.198Z,102085.19
2022-10-09T13:32:32.631Z,102080.63
2022-10-09T13:34:59.149Z,102083.53
2022-10-09T13:37:26.659Z,102078.97
2022-10-09T13:39:58.614Z,102063.53
2022-10-09T13:42:33.398Z,102065.75
2022-10-09T13:44:59.860Z,102058.97
2022-10-09T13:47:26.399Z,102060.13
2022-10-09T13:49:52.849Z,102053.50
2022-10-09T13:52:19.294Z,102051.03
2022-10-09T13:54:45.742Z,102043.53
2022-10-09T13:57:12.250Z,102039.66
2022-10-09T13:59:39.410Z,102037.19
2022-10-09T14:02:05.873Z,102028.03
2022-10-09T14:04:32.290Z,102029.22
2022-10-09T14:06:58.711Z,102032.47
2022-10-09T14:09:25.218Z,102026.75
2022-10-09T14:11:51.660Z,102032.84
2022-10-09T14:14:18.094Z,102015.09
2022-10-09T14:16:44.628Z,102015.16
2022-10-09T14:19:11.744Z,102010.78
2022-10-09T14:21:38.207Z,101999.44
2022-10-09T14:24:05.391Z,102003.56
2022-10-09T14:26:32.486Z,102002.88
2022-10-09T14:29:01.107Z,101996.34
2022-10-09T14:31:28.262Z,101991.69
2022-10-09T14:33:57.321Z,101985.06
2022-10-09T14:36:23.842Z,101979.84
2022-10-09T14:38:50.850Z,101982.72
2022-10-09T14:41:17.989Z,101976.97
2022-10-09T14:43:45.480Z,101973.72
2022-10-09T14:46:16.798Z,101959.97
2022-10-09T14:48:50.236Z,101967.19
2022-10-09T14:51:21.607Z,101960.72
2022-10-09T14:53:48.604Z,101954.00
2022-10-09T14:56:18.272Z,101957.06
2022-10-09T14:58:45.026Z,101947.25
2022-10-09T15:01:17.417Z,101949.97
2022-10-09T15:03:44.721Z,101941.75
2022-10-09T15:06:12.650Z,101948.81
2022-10-09T15:08:42.313Z,101939.28
2022-10-09T15:11:10.374Z,101940.53
2022-10-09T15:13:37.450Z,101934.69
2022-10-09T15:16:06.997Z,101928.97
2022-10-09T15:18:34.790Z,101925.03
2022-10-09T15:21:01.699Z,101922.22
2022-10-09T15:23:29.469Z,101925.19
2022-10-09T15:25:58.381Z,101919.19
2022-10-09T15:28:25.463Z,101910.72
2022-10-09T15:30:59.132Z,101911.88
2022-10-09T15:33:25.969Z,101907.94
2022-10-09T15:35:53.644Z,101903.66
2022-10-09T15:38:22.403Z,101903.28
2022-10-09T15:40:51.853Z,101896.44
2022-10-09T15:43:20.187Z,101884.97
2022-10-09T15:45:47.126Z,101880.59
2022-10-09T15:48:24.957Z,101882.00
2022-10-09T15:50:53.566Z,101876.84
2022-10-09T15:53:22.387Z,101881.78
2022-10-09T15:55:51.391Z,101875.09
2022-10-09T15:58:18.365Z,101871.56
2022-10-09T16:00:47.653Z,101865.72
2022-10-09T16:03:15.521Z,101858.56
2022-10-09T16:05:44.888Z,101862.41
2022-10-09T16:08:11.983Z,101852.59
2022-10-09T16:10:57.109Z,101846.94
2022-10-09T16:13:26.095Z,101844.97
2022-10-09T16:15:52.807Z,101844.88
2022-10-09T16:18:23.105Z,101845.41
2022-10-09T16:20:51.015Z,101844.19
2022-10-09T16:23:17.882Z,101845.13
2022-10-09T16:25:44.705Z,101846.41
2022-10-09T16:28:12.679Z,101842.47
2022-10-09T16:30:43.917Z,101839.44
2022-10-09T16:33:12.925Z,101839.19
2022-10-09T16:35:39.606Z,101839.97
2022-10-09T16:38:06.395Z,101834.63
2022-10-09T16:40:57.375Z,101836.78
2022-10-09T16:43:20.109Z,101831.41
2022-10-09T16:45:46.690Z,101828.00
2022-10-09T16:48:13.132Z,101830.88
2022-10-09T16:50:43.523Z,101831.06
2022-10-09T16:53:09.980Z,101828.50
2022-10-09T16:55:37.281Z,101827.53
2022-10-09T16:58:03.984Z,101822.50
2022-10-09T17:00:30.504Z,101832.13
2022-10-09T17:02:57.042Z,101829.56
2022-10-09T17:05:25.448Z,101829.81
2022-10-09T17:07:52.272Z,101831.19
2022-10-09T17:10:18.933Z,101831.81
2022-10-09T17:12:45.374Z,101825.81
2022-10-09T17:15:13.424Z,101833.00
2022-10-09T17:17:40.142Z,101829.84
2022-10-09T17:20:07.230Z,101832.81
2022-10-09T17:22:33.703Z,101823.31
2022-10-09T17:25:00.147Z,101836.16
2022-10-09T17:27:26.571Z,101836.75
2022-10-09T17:29:53.007Z,101827.09
2022-10-09T17:32:19.468Z,101823.44
2022-10-09T17:34:46.069Z,101826.09
2022-10-09T17:37:13.470Z,101819.28
2022-10-09T17:39:40.096Z,101816.63
2022-10-09T17:42:06.707Z,101809.94
2022-10-09T17:44:33.289Z,101816.88
2022-10-09T17:47:00.815Z,101811.91
2022-10-09T17:49:27.602Z,101814.63
2022-10-09T17:51:54.522Z,101822.09
2022-10-09T17:54:21.685Z,101810.53
2022-10-09T17:56:48.349Z,101808.72
2022-10-09T17:59:15.724Z,101804.63
2022-10-09T18:01:42.661Z,101803.59
2022-10-09T18:04:14.447Z,101803.03
2022-10-09T18:06:40.917Z,101803.03
2022-10-09T18:09:07.403Z,101801.88
2022-10-09T18:11:34.008Z,101795.03
2022-10-09T18:14:01.864Z,101787.44
2022-10-09T18:16:35.693Z,101793.09
2022-10-09T18:19:03.442Z,101784.72
2022-10-09T18:21:29.922Z,101786.31
2022-10-09T18:23:56.392Z,101790.63
2022-10-09T18:26:22.816Z,101783.00
2022-10-09T18:28:49.320Z,101777.53
2022-10-09T18:31:19.523Z,101778.94
2022-10-09T18:33:46.595Z,101777.31
2022-10-09T18:36:19.730Z,101775.13
2022-10-09T18:38:55.305Z,101777.28
2022-10-09T18:41:23.350Z,101773.63
2022-10-09T18:43:51.439Z,101768.75
2022-10-09T18:46:20.650Z,101773.09
2022-10-09T18:48:47.550Z,101771.66
2022-10-09T18:51:18.243Z,101764.59
2022-10-09T18:53:48.176Z,101764.00
2022-10-09T18:56:17.440Z,101758.78
2022-10-09T18:58:43.941Z,101765.53
2022-10-09T19:01:10.447Z,101761.28
2022-10-09T19:03:36.915Z,101760.84
2022-10-09T19:06:04.830Z,101755.13
2022-10-09T19:08:31.302Z,101758.94
2022-10-09T19:10:58.022Z,101758.06
2022-10-09T19:13:25.124Z,101757.50
2022-10-09T19:15:53.633Z,101747.81
2022-10-09T19:18:21.022Z,101735.72
2022-10-09T19:20:47.926Z,101741.41
2022-10-09T19:23:15.240Z,101735.97
2022-10-09T19:25:50.327Z,101736.44
2022-10-09T19:28:17.725Z,101744.03
2022-10-09T19:30:45.966Z,101737.50
2022-10-09T19:33:12.671Z,101731.81
2022-10-09T19:35:46.265Z,101735.78
2022-10-09T19:38:13.236Z,101740.78
2022-10-09T19:40:39.963Z,101737.41
2022-10-09T19:43:06.598Z,101735.00
2022-10-09T19:45:33.041Z,101724.47
2022-10-09T19:48:00.027Z,101728.75
2022-10-09T19:50:26.829Z,101728.13
2022-10-09T19:52:53.282Z,101728.22
2022-10-09T19:55:19.730Z,101724.72
2022-10-09T19:57:46.178Z,101721.09
2022-10-09T20:00:13.103Z,101714.50
2022-10-09T20:02:39.531Z,101713.03
2022-10-09T20:05:06.258Z,101719.16
2022-10-09T20:07:32.815Z,101715.94
2022-10-09T20:09:59.319Z,101712.19
2022-10-09T20:12:26.019Z,101707.31
2022-10-09T20:14:52.499Z,101710.81
2022-10-09T20:17:18.995Z,101699.16
2022-10-09T20:19:45.828Z,101706.53
2022-10-09T20:22:12.414Z,101692.78
2022-10-09T20:24:38.961Z,101688.13
2022-10-09T20:27:05.466Z,101681.56
2022-10-09T20:29:31.874Z,101690.53
2022-10-09T20:31:58.379Z,101687.22
2022-10-09T20:34:26.925Z,101686.28
2022-10-09T20:36:53.528Z,101695.47
2022-10-09T20:39:22.760Z,101689.09
2022-10-09T20:41:49.232Z,101680.03
2022-10-09T20:44:15.772Z,101683.88
2022-10-09T20:46:42.286Z,101687.91
2022-10-09T20:49:12.158Z,101687.00
2022-10-09T20:51:39.135Z,101683.50
2022-10-09T20:54:07.277Z,101675.19
2022-10-09T20:56:34.260Z,101683.34
2022-10-09T20:59:01.664Z,101670.44
2022-10-09T21:01:28.860Z,101673.34
2022-10-09T21:03:59.842Z,101664.63
2022-10-09T21:06:26.752Z,101664.13
2022-10-09T21:08:53.313Z,101663.69
2022-10-09T21:11:21.256Z,101662.72
2022-10-09T21:13:48.769Z,101658.09
2022-10-09T21:16:19.042Z,101654.44
2022-10-09T21:18:46.042Z,101650.81
2022-10-09T21:21:15.325Z,101650.34
2022-10-09T21:23:42.677Z,101649.75
2022-10-09T21:26:17.151Z,101651.13
2022-10-09T21:28:44.649Z,101643.00
2022-10-09T21:31:20.035Z,101640.28
2022-10-09T21:33:47.209Z,101642.03
2022-10-09T21:36:18.496Z,101643.97
2022-10-09T21:38:44.953Z,101638.19
2022-10-09T21:41:11.434Z,101638.69
2022-10-09T21:43:37.867Z,101644.91
2022-10-09T21:46:04.430Z,101641.72
2022-10-09T21:48:30.860Z,101640.47
2022-10-09T21:50:57.524Z,101640.47
2022-10-09T21:53:23.932Z,101634.91
2022-10-09T21:55:50.367Z,101629.31
2022-10-09T21:58:16.825Z,101623.09
2022-10-09T22:00:43.278Z,101627.41
2022-10-09T22:03:09.703Z,101624.91
2022-10-09T22:05:39.538Z,101622.19
2022-10-09T22:08:06.057Z,101624.44
2022-10-09T22:10:32.468Z,101615.22
2022-10-09T22:12:58.913Z,101615.88
2022-10-09T22:15:25.369Z,101609.66
2022-10-09T22:17:51.794Z,101616.66
2022-10-09T22:20:18.343Z,101612.34
2022-10-09T22:22:44.842Z,101607.25
2022-10-09T22:25:11.793Z,101612.84
2022-10-09T22:27:38.209Z,101613.31
2022-10-09T22:30:05.223Z,101605.34
2022-10-09T22:32:31.654Z,101606.13
2022-10-09T22:34:58.110Z,101602.34
2022-10-09T22:37:24.563Z,101592.28
2022-10-09T22:39:50.995Z,101605.28
2022-10-09T22:42:17.442Z,101595.53
2022-10-09T22:44:43.860Z,101589.78
2022-10-09T22:47:10.340Z,101596.41
2022-10-09T22:49:36.742Z,101592.88
2022-10-09T22:52:04.040Z,101588.44
2022-10-09T22:54:30.466Z,101583.00
2022-10-09T22:56:57.004Z,101589.56
2022-10-09T22:59:23.441Z,101587.97
2022-10-09T23:01:53.861Z,101591.16
2022-10-09T23:04:22.492Z,101590.50
2022-10-09T23:06:51.983Z,101587.84
2022-10-09T23:09:20.840Z,101590.41
2022-10-09T23:11:47.377Z,101586.44
2022-10-09T23:14:13.964Z,101585.66
2022-10-09T23:16:41.130Z,101582.16
2022-10-09T23:19:08.483Z,101580.84
2022-10-09T23:21:37.284Z,101576.88
2022-10-09T23:24:05.074Z,101566.81
2022-10-09T23:26:32.733Z,101566.81
2022-10-09T23:29:02.586Z,101569.09
2022-10-09T23:31:29.895Z,101555.75
2022-10-09T23:33:57.450Z,101560.75
2022-10-09T23:36:26.735Z,101561.75
2022-10-09T23:38:53.972Z,101561.56
2022-10-09T23:41:22.682Z,101563.63
2022-10-09T23:43:50.474Z,101567.31
2022-10-09T23:46:22.634Z,101560.47
2022-10-09T23:48:50.274Z,101560.47
2022-10-09T23:51:18.958Z,101550.78
2022-10-09T23:53:45.847Z,101545.69
2022-10-09T23:56:30.465Z,101550.53
2022-10-09T23:58:58.758Z,101544.31
